Aviation Digital Data Service (ADDS)

Output produced by TAFs form (1951 UTC 30 September 2014)
found at http://aviationweather.gov/adds/tafs/
 
KLVS 301722Z 3018/0118 16008KT P6SM SKC 
     TEMPO 3019/3022 24013G21KT 
     FM302200 24015G25KT P6SM SKC 
     FM010130 26010KT P6SM SKC